sensor_id;sensor_type;location;lat;lon;timestamp;P1;durP1;ratioP1;P2;durP2;ratioP2
12171;SDS011;6149;52.418;13.668;2023-06-10T00:00:18;15.77;;;6.17;;
12171;SDS011;6149;52.418;13.668;2023-06-10T00:02:46;11.20;;;6.07;;
12171;SDS011;6149;52.418;13.668;2023-06-10T00:05:16;10.53;;;6.30;;
12171;SDS011;6149;52.418;13.668;2023-06-10T00:07:49;13.93;;;5.87;;
12171;SDS011;6149;52.418;13.668;2023-06-10T00:10:16;11.37;;;6.00;;
12171;SDS011;6149;52.418;13.668;2023-06-10T00:12:43;7.90;;;5.30;;
12171;SDS011;6149;52.418;13.668;2023-06-10T00:15:11;10.27;;;5.60;;
12171;SDS011;6149;52.418;13.668;2023-06-10T00:17:37;9.17;;;5.97;;
12171;SDS011;6149;52.418;13.668;2023-06-10T00:20:07;11.37;;;5.90;;
12171;SDS011;6149;52.418;13.668;2023-06-10T00:22:37;11.00;;;6.43;;
12171;SDS011;6149;52.418;13.668;2023-06-10T00:25:09;8.80;;;5.73;;
12171;SDS011;6149;52.418;13.668;2023-06-10T00:27:38;9.60;;;6.07;;
12171;SDS011;6149;52.418;13.668;2023-06-10T00:30:07;10.33;;;6.23;;
12171;SDS011;6149;52.418;13.668;2023-06-10T00:32:35;8.77;;;5.67;;
12171;SDS011;6149;52.418;13.668;2023-06-10T00:35:05;9.23;;;5.80;;
12171;SDS011;6149;52.418;13.668;2023-06-10T00:37:32;9.67;;;5.60;;
12171;SDS011;6149;52.418;13.668;2023-06-10T00:40:00;10.47;;;6.47;;
12171;SDS011;6149;52.418;13.668;2023-06-10T00:42:28;13.10;;;6.00;;
12171;SDS011;6149;52.418;13.668;2023-06-10T00:44:56;10.43;;;5.47;;
12171;SDS011;6149;52.418;13.668;2023-06-10T00:47:23;8.87;;;5.13;;
12171;SDS011;6149;52.418;13.668;2023-06-10T00:49:52;10.87;;;5.93;;
12171;SDS011;6149;52.418;13.668;2023-06-10T00:52:20;10.07;;;6.03;;
12171;SDS011;6149;52.418;13.668;2023-06-10T00:54:49;9.10;;;6.10;;
12171;SDS011;6149;52.418;13.668;2023-06-10T00:57:17;10.00;;;6.63;;
12171;SDS011;6149;52.418;13.668;2023-06-10T00:59:50;9.93;;;5.83;;
12171;SDS011;6149;52.418;13.668;2023-06-10T01:02:18;11.57;;;6.20;;
12171;SDS011;6149;52.418;13.668;2023-06-10T01:04:46;11.47;;;6.10;;
12171;SDS011;6149;52.418;13.668;2023-06-10T01:07:18;12.00;;;6.50;;
12171;SDS011;6149;52.418;13.668;2023-06-10T01:09:53;11.13;;;6.13;;
12171;SDS011;6149;52.418;13.668;2023-06-10T01:12:26;14.23;;;6.00;;
12171;SDS011;6149;52.418;13.668;2023-06-10T01:15:02;10.77;;;6.07;;
12171;SDS011;6149;52.418;13.668;2023-06-10T01:17:32;10.53;;;6.20;;
12171;SDS011;6149;52.418;13.668;2023-06-10T01:20:01;8.63;;;5.60;;
12171;SDS011;6149;52.418;13.668;2023-06-10T01:22:38;11.13;;;5.87;;
12171;SDS011;6149;52.418;13.668;2023-06-10T01:25:06;9.70;;;6.30;;
12171;SDS011;6149;52.418;13.668;2023-06-10T01:27:33;11.00;;;5.97;;
12171;SDS011;6149;52.418;13.668;2023-06-10T01:30:07;9.43;;;6.17;;
12171;SDS011;6149;52.418;13.668;2023-06-10T01:32:43;12.33;;;6.80;;
12171;SDS011;6149;52.418;13.668;2023-06-10T01:35:13;11.53;;;6.17;;
12171;SDS011;6149;52.418;13.668;2023-06-10T01:37:46;10.00;;;5.90;;
12171;SDS011;6149;52.418;13.668;2023-06-10T01:40:15;8.33;;;5.83;;
12171;SDS011;6149;52.418;13.668;2023-06-10T01:42:48;10.70;;;6.30;;
12171;SDS011;6149;52.418;13.668;2023-06-10T01:45:18;9.00;;;6.20;;
12171;SDS011;6149;52.418;13.668;2023-06-10T01:47:46;10.57;;;6.07;;
12171;SDS011;6149;52.418;13.668;2023-06-10T01:50:14;11.17;;;6.20;;
12171;SDS011;6149;52.418;13.668;2023-06-10T01:52:48;9.90;;;5.73;;
12171;SDS011;6149;52.418;13.668;2023-06-10T01:55:16;13.83;;;7.00;;
12171;SDS011;6149;52.418;13.668;2023-06-10T01:57:47;14.90;;;7.20;;
12171;SDS011;6149;52.418;13.668;2023-06-10T02:00:14;11.73;;;6.17;;
12171;SDS011;6149;52.418;13.668;2023-06-10T02:02:44;8.80;;;6.20;;
12171;SDS011;6149;52.418;13.668;2023-06-10T02:05:13;10.00;;;6.20;;
12171;SDS011;6149;52.418;13.668;2023-06-10T02:07:42;13.27;;;6.20;;
12171;SDS011;6149;52.418;13.668;2023-06-10T02:10:10;11.23;;;6.50;;
12171;SDS011;6149;52.418;13.668;2023-06-10T02:12:38;18.37;;;7.43;;
12171;SDS011;6149;52.418;13.668;2023-06-10T02:15:06;10.33;;;6.30;;
12171;SDS011;6149;52.418;13.668;2023-06-10T02:17:32;12.90;;;5.93;;
12171;SDS011;6149;52.418;13.668;2023-06-10T02:20:00;12.73;;;6.40;;
12171;SDS011;6149;52.418;13.668;2023-06-10T02:22:29;15.07;;;7.10;;
12171;SDS011;6149;52.418;13.668;2023-06-10T02:24:55;12.83;;;6.80;;
12171;SDS011;6149;52.418;13.668;2023-06-10T02:27:23;10.03;;;6.27;;
12171;SDS011;6149;52.418;13.668;2023-06-10T02:29:50;13.10;;;6.50;;
12171;SDS011;6149;52.418;13.668;2023-06-10T02:32:21;16.70;;;6.77;;
12171;SDS011;6149;52.418;13.668;2023-06-10T02:34:47;14.27;;;7.10;;
12171;SDS011;6149;52.418;13.668;2023-06-10T02:37:18;11.57;;;6.07;;
12171;SDS011;6149;52.418;13.668;2023-06-10T02:39:47;9.57;;;6.00;;
12171;SDS011;6149;52.418;13.668;2023-06-10T02:42:14;10.70;;;6.23;;
12171;SDS011;6149;52.418;13.668;2023-06-10T02:44:47;9.47;;;5.93;;
12171;SDS011;6149;52.418;13.668;2023-06-10T02:47:16;15.00;;;6.47;;
12171;SDS011;6149;52.418;13.668;2023-06-10T02:49:43;15.97;;;7.43;;
12171;SDS011;6149;52.418;13.668;2023-06-10T02:52:09;13.37;;;6.63;;
12171;SDS011;6149;52.418;13.668;2023-06-10T02:54:36;11.70;;;6.50;;
12171;SDS011;6149;52.418;13.668;2023-06-10T02:57:05;10.63;;;6.00;;
12171;SDS011;6149;52.418;13.668;2023-06-10T02:59:32;15.63;;;6.57;;
12171;SDS011;6149;52.418;13.668;2023-06-10T03:02:08;10.70;;;6.50;;
12171;SDS011;6149;52.418;13.668;2023-06-10T03:04:34;13.10;;;6.47;;
12171;SDS011;6149;52.418;13.668;2023-06-10T03:07:02;11.90;;;6.70;;
12171;SDS011;6149;52.418;13.668;2023-06-10T03:09:32;12.67;;;6.83;;
12171;SDS011;6149;52.418;13.668;2023-06-10T03:11:58;13.50;;;7.03;;
12171;SDS011;6149;52.418;13.668;2023-06-10T03:14:25;11.03;;;6.67;;
12171;SDS011;6149;52.418;13.668;2023-06-10T03:16:52;16.17;;;8.17;;
12171;SDS011;6149;52.418;13.668;2023-06-10T03:19:20;9.60;;;6.20;;
12171;SDS011;6149;52.418;13.668;2023-06-10T03:21:49;10.37;;;6.47;;
12171;SDS011;6149;52.418;13.668;2023-06-10T03:24:23;10.93;;;7.03;;
12171;SDS011;6149;52.418;13.668;2023-06-10T03:26:50;14.93;;;7.90;;
12171;SDS011;6149;52.418;13.668;2023-06-10T03:29:18;9.27;;;6.33;;
12171;SDS011;6149;52.418;13.668;2023-06-10T03:31:46;13.77;;;7.20;;
12171;SDS011;6149;52.418;13.668;2023-06-10T03:34:12;10.93;;;6.63;;
12171;SDS011;6149;52.418;13.668;2023-06-10T03:36:42;9.10;;;6.77;;
12171;SDS011;6149;52.418;13.668;2023-06-10T03:39:09;12.33;;;7.00;;
12171;SDS011;6149;52.418;13.668;2023-06-10T03:41:36;11.43;;;7.23;;
12171;SDS011;6149;52.418;13.668;2023-06-10T03:44:03;9.60;;;6.53;;
12171;SDS011;6149;52.418;13.668;2023-06-10T03:46:30;11.73;;;7.50;;
12171;SDS011;6149;52.418;13.668;2023-06-10T03:48:58;12.47;;;6.90;;
12171;SDS011;6149;52.418;13.668;2023-06-10T03:51:25;11.90;;;7.37;;
12171;SDS011;6149;52.418;13.668;2023-06-10T03:53:53;14.43;;;7.87;;
12171;SDS011;6149;52.418;13.668;2023-06-10T03:56:20;11.30;;;7.00;;
12171;SDS011;6149;52.418;13.668;2023-06-10T03:58:47;12.33;;;6.63;;
12171;SDS011;6149;52.418;13.668;2023-06-10T04:01:15;10.43;;;7.07;;
12171;SDS011;6149;52.418;13.668;2023-06-10T04:03:47;11.47;;;8.00;;
12171;SDS011;6149;52.418;13.668;2023-06-10T04:06:17;15.43;;;7.43;;
12171;SDS011;6149;52.418;13.668;2023-06-10T04:08:48;11.73;;;7.00;;
12171;SDS011;6149;52.418;13.668;2023-06-10T04:11:21;12.70;;;7.27;;
12171;SDS011;6149;52.418;13.668;2023-06-10T04:13:48;12.37;;;7.50;;
12171;SDS011;6149;52.418;13.668;2023-06-10T04:16:16;13.37;;;7.10;;
12171;SDS011;6149;52.418;13.668;2023-06-10T04:18:44;12.17;;;7.63;;
12171;SDS011;6149;52.418;13.668;2023-06-10T04:21:13;11.03;;;7.37;;
12171;SDS011;6149;52.418;13.668;2023-06-10T04:23:41;9.63;;;7.00;;
12171;SDS011;6149;52.418;13.668;2023-06-10T04:26:07;13.20;;;7.40;;
12171;SDS011;6149;52.418;13.668;2023-06-10T04:28:39;14.57;;;8.20;;
12171;SDS011;6149;52.418;13.668;2023-06-10T04:31:05;12.37;;;7.33;;
12171;SDS011;6149;52.418;13.668;2023-06-10T04:33:33;13.53;;;7.73;;
12171;SDS011;6149;52.418;13.668;2023-06-10T04:36:01;8.43;;;6.77;;
12171;SDS011;6149;52.418;13.668;2023-06-10T04:38:27;13.33;;;7.80;;
12171;SDS011;6149;52.418;13.668;2023-06-10T04:40:56;11.50;;;7.93;;
12171;SDS011;6149;52.418;13.668;2023-06-10T04:43:23;12.53;;;8.00;;
12171;SDS011;6149;52.418;13.668;2023-06-10T04:45:54;15.47;;;8.27;;
12171;SDS011;6149;52.418;13.668;2023-06-10T04:48:22;11.27;;;8.20;;
12171;SDS011;6149;52.418;13.668;2023-06-10T04:50:49;11.07;;;7.47;;
12171;SDS011;6149;52.418;13.668;2023-06-10T04:53:17;10.13;;;7.83;;
12171;SDS011;6149;52.418;13.668;2023-06-10T04:55:46;16.60;;;7.87;;
12171;SDS011;6149;52.418;13.668;2023-06-10T04:58:14;12.83;;;7.83;;
12171;SDS011;6149;52.418;13.668;2023-06-10T05:00:41;11.23;;;7.67;;
12171;SDS011;6149;52.418;13.668;2023-06-10T05:03:11;12.27;;;7.80;;
12171;SDS011;6149;52.418;13.668;2023-06-10T05:05:37;12.87;;;8.03;;
12171;SDS011;6149;52.418;13.668;2023-06-10T05:08:06;14.83;;;8.43;;
12171;SDS011;6149;52.418;13.668;2023-06-10T05:10:33;9.47;;;7.80;;
12171;SDS011;6149;52.418;13.668;2023-06-10T05:13:00;11.43;;;8.20;;
12171;SDS011;6149;52.418;13.668;2023-06-10T05:15:28;12.20;;;7.63;;
12171;SDS011;6149;52.418;13.668;2023-06-10T05:17:55;9.70;;;8.20;;
12171;SDS011;6149;52.418;13.668;2023-06-10T05:20:25;9.87;;;7.70;;
12171;SDS011;6149;52.418;13.668;2023-06-10T05:22:53;13.67;;;8.03;;
12171;SDS011;6149;52.418;13.668;2023-06-10T05:25:21;10.30;;;7.80;;
12171;SDS011;6149;52.418;13.668;2023-06-10T05:27:49;12.07;;;8.13;;
12171;SDS011;6149;52.418;13.668;2023-06-10T05:30:17;13.83;;;8.90;;
12171;SDS011;6149;52.418;13.668;2023-06-10T05:32:50;11.13;;;8.00;;
12171;SDS011;6149;52.418;13.668;2023-06-10T05:35:19;15.83;;;8.60;;
12171;SDS011;6149;52.418;13.668;2023-06-10T05:37:50;11.83;;;8.20;;
12171;SDS011;6149;52.418;13.668;2023-06-10T05:40:18;13.03;;;8.93;;
12171;SDS011;6149;52.418;13.668;2023-06-10T05:42:48;9.90;;;8.50;;
12171;SDS011;6149;52.418;13.668;2023-06-10T05:45:18;10.87;;;8.13;;
12171;SDS011;6149;52.418;13.668;2023-06-10T05:47:47;11.53;;;8.70;;
12171;SDS011;6149;52.418;13.668;2023-06-10T05:50:14;16.43;;;8.67;;
12171;SDS011;6149;52.418;13.668;2023-06-10T05:52:41;13.37;;;8.67;;
12171;SDS011;6149;52.418;13.668;2023-06-10T05:55:14;11.73;;;7.73;;
12171;SDS011;6149;52.418;13.668;2023-06-10T05:57:44;10.17;;;7.90;;
12171;SDS011;6149;52.418;13.668;2023-06-10T06:00:13;9.50;;;8.03;;
12171;SDS011;6149;52.418;13.668;2023-06-10T06:02:44;12.00;;;8.47;;
12171;SDS011;6149;52.418;13.668;2023-06-10T06:05:13;9.40;;;7.40;;
12171;SDS011;6149;52.418;13.668;2023-06-10T06:07:40;13.33;;;8.63;;
12171;SDS011;6149;52.418;13.668;2023-06-10T06:10:07;13.93;;;7.83;;
12171;SDS011;6149;52.418;13.668;2023-06-10T06:12:35;10.77;;;8.10;;
12171;SDS011;6149;52.418;13.668;2023-06-10T06:15:01;9.80;;;7.90;;
12171;SDS011;6149;52.418;13.668;2023-06-10T06:17:29;9.70;;;8.30;;
12171;SDS011;6149;52.418;13.668;2023-06-10T06:19:55;10.60;;;8.23;;
12171;SDS011;6149;52.418;13.668;2023-06-10T06:22:23;12.50;;;7.93;;
12171;SDS011;6149;52.418;13.668;2023-06-10T06:24:50;9.87;;;7.80;;
12171;SDS011;6149;52.418;13.668;2023-06-10T06:27:18;9.03;;;7.53;;
12171;SDS011;6149;52.418;13.668;2023-06-10T06:29:54;11.27;;;7.90;;
12171;SDS011;6149;52.418;13.668;2023-06-10T06:32:22;9.03;;;7.77;;
12171;SDS011;6149;52.418;13.668;2023-06-10T06:34:51;12.03;;;8.27;;
12171;SDS011;6149;52.418;13.668;2023-06-10T06:37:21;10.57;;;7.70;;
12171;SDS011;6149;52.418;13.668;2023-06-10T06:39:50;9.23;;;8.10;;
12171;SDS011;6149;52.418;13.668;2023-06-10T06:42:17;9.67;;;8.03;;
12171;SDS011;6149;52.418;13.668;2023-06-10T06:44:46;10.93;;;8.00;;
12171;SDS011;6149;52.418;13.668;2023-06-10T06:47:18;10.07;;;8.30;;
12171;SDS011;6149;52.418;13.668;2023-06-10T06:49:52;11.83;;;8.53;;
12171;SDS011;6149;52.418;13.668;2023-06-10T06:52:20;8.80;;;7.90;;
12171;SDS011;6149;52.418;13.668;2023-06-10T06:54:49;11.30;;;8.30;;
12171;SDS011;6149;52.418;13.668;2023-06-10T06:57:16;9.70;;;8.70;;
12171;SDS011;6149;52.418;13.668;2023-06-10T06:59:45;11.87;;;8.43;;
12171;SDS011;6149;52.418;13.668;2023-06-10T07:02:13;8.37;;;7.57;;
12171;SDS011;6149;52.418;13.668;2023-06-10T07:04:42;12.60;;;8.03;;
12171;SDS011;6149;52.418;13.668;2023-06-10T07:07:09;9.80;;;8.10;;
12171;SDS011;6149;52.418;13.668;2023-06-10T07:09:37;13.90;;;8.87;;
12171;SDS011;6149;52.418;13.668;2023-06-10T07:12:04;10.37;;;8.57;;
12171;SDS011;6149;52.418;13.668;2023-06-10T07:14:32;10.03;;;8.33;;
12171;SDS011;6149;52.418;13.668;2023-06-10T07:16:59;8.97;;;7.87;;
12171;SDS011;6149;52.418;13.668;2023-06-10T07:19:27;11.63;;;8.50;;
12171;SDS011;6149;52.418;13.668;2023-06-10T07:21:55;12.20;;;9.00;;
12171;SDS011;6149;52.418;13.668;2023-06-10T07:24:22;9.93;;;8.47;;
12171;SDS011;6149;52.418;13.668;2023-06-10T07:26:50;10.17;;;8.73;;
12171;SDS011;6149;52.418;13.668;2023-06-10T07:29:18;11.10;;;8.53;;
12171;SDS011;6149;52.418;13.668;2023-06-10T07:31:44;9.23;;;8.30;;
12171;SDS011;6149;52.418;13.668;2023-06-10T07:34:13;10.67;;;8.40;;
12171;SDS011;6149;52.418;13.668;2023-06-10T07:36:41;10.87;;;8.87;;
12171;SDS011;6149;52.418;13.668;2023-06-10T07:39:09;9.37;;;8.47;;
12171;SDS011;6149;52.418;13.668;2023-06-10T07:41:35;10.20;;;8.10;;
12171;SDS011;6149;52.418;13.668;2023-06-10T07:44:02;13.30;;;8.23;;
12171;SDS011;6149;52.418;13.668;2023-06-10T07:46:31;10.87;;;8.53;;
12171;SDS011;6149;52.418;13.668;2023-06-10T07:48:57;10.80;;;9.20;;
12171;SDS011;6149;52.418;13.668;2023-06-10T07:51:24;9.63;;;8.23;;
12171;SDS011;6149;52.418;13.668;2023-06-10T07:53:50;13.53;;;8.73;;
12171;SDS011;6149;52.418;13.668;2023-06-10T07:56:19;9.43;;;8.50;;
12171;SDS011;6149;52.418;13.668;2023-06-10T07:58:49;9.63;;;8.17;;
12171;SDS011;6149;52.418;13.668;2023-06-10T08:01:16;9.23;;;8.43;;
12171;SDS011;6149;52.418;13.668;2023-06-10T08:03:45;11.87;;;9.40;;
12171;SDS011;6149;52.418;13.668;2023-06-10T08:06:14;16.03;;;8.27;;
12171;SDS011;6149;52.418;13.668;2023-06-10T08:08:43;9.50;;;8.23;;
12171;SDS011;6149;52.418;13.668;2023-06-10T08:11:10;10.07;;;8.83;;
12171;SDS011;6149;52.418;13.668;2023-06-10T08:13:40;12.33;;;9.33;;
12171;SDS011;6149;52.418;13.668;2023-06-10T08:16:07;9.57;;;7.97;;
12171;SDS011;6149;52.418;13.668;2023-06-10T08:18:34;10.07;;;8.67;;
12171;SDS011;6149;52.418;13.668;2023-06-10T08:21:03;10.70;;;9.13;;
12171;SDS011;6149;52.418;13.668;2023-06-10T08:23:30;10.00;;;8.40;;
12171;SDS011;6149;52.418;13.668;2023-06-10T08:25:56;8.57;;;7.73;;
12171;SDS011;6149;52.418;13.668;2023-06-10T08:28:24;10.30;;;8.43;;
12171;SDS011;6149;52.418;13.668;2023-06-10T08:30:52;9.23;;;8.33;;
12171;SDS011;6149;52.418;13.668;2023-06-10T08:33:18;11.60;;;8.43;;
12171;SDS011;6149;52.418;13.668;2023-06-10T08:35:46;10.40;;;8.47;;
12171;SDS011;6149;52.418;13.668;2023-06-10T08:38:13;12.00;;;8.27;;
12171;SDS011;6149;52.418;13.668;2023-06-10T08:40:42;9.63;;;8.60;;
12171;SDS011;6149;52.418;13.668;2023-06-10T08:43:10;13.93;;;9.00;;
12171;SDS011;6149;52.418;13.668;2023-06-10T08:45:49;9.23;;;8.33;;
12171;SDS011;6149;52.418;13.668;2023-06-10T08:48:20;11.67;;;8.60;;
12171;SDS011;6149;52.418;13.668;2023-06-10T08:50:48;9.23;;;8.30;;
12171;SDS011;6149;52.418;13.668;2023-06-10T08:53:18;9.17;;;8.20;;
12171;SDS011;6149;52.418;13.668;2023-06-10T08:55:46;10.77;;;8.87;;
12171;SDS011;6149;52.418;13.668;2023-06-10T08:58:19;10.47;;;8.80;;
12171;SDS011;6149;52.418;13.668;2023-06-10T09:00:51;10.03;;;8.87;;
12171;SDS011;6149;52.418;13.668;2023-06-10T09:03:19;10.03;;;9.07;;
12171;SDS011;6149;52.418;13.668;2023-06-10T09:05:49;10.33;;;8.67;;
12171;SDS011;6149;52.418;13.668;2023-06-10T09:08:17;9.67;;;8.77;;
12171;SDS011;6149;52.418;13.668;2023-06-10T09:10:45;10.90;;;9.07;;
12171;SDS011;6149;52.418;13.668;2023-06-10T09:13:15;12.03;;;9.40;;
12171;SDS011;6149;52.418;13.668;2023-06-10T09:15:43;9.97;;;8.87;;
12171;SDS011;6149;52.418;13.668;2023-06-10T09:18:13;9.47;;;8.57;;
12171;SDS011;6149;52.418;13.668;2023-06-10T09:20:41;9.50;;;8.60;;
12171;SDS011;6149;52.418;13.668;2023-06-10T09:23:10;9.60;;;8.60;;
12171;SDS011;6149;52.418;13.668;2023-06-10T09:25:38;9.67;;;8.80;;
12171;SDS011;6149;52.418;13.668;2023-06-10T09:28:12;9.00;;;8.10;;
12171;SDS011;6149;52.418;13.668;2023-06-10T09:30:41;11.10;;;8.77;;
12171;SDS011;6149;52.418;13.668;2023-06-10T09:33:09;9.17;;;8.27;;
12171;SDS011;6149;52.418;13.668;2023-06-10T09:35:45;8.73;;;7.93;;
12171;SDS011;6149;52.418;13.668;2023-06-10T09:38:14;9.70;;;8.70;;
12171;SDS011;6149;52.418;13.668;2023-06-10T09:40:49;8.37;;;7.67;;
12171;SDS011;6149;52.418;13.668;2023-06-10T09:43:18;9.13;;;8.23;;
12171;SDS011;6149;52.418;13.668;2023-06-10T09:45:47;9.00;;;8.10;;
12171;SDS011;6149;52.418;13.668;2023-06-10T09:48:15;8.67;;;7.83;;
12171;SDS011;6149;52.418;13.668;2023-06-10T09:50:46;10.60;;;8.03;;
12171;SDS011;6149;52.418;13.668;2023-06-10T09:53:18;9.03;;;8.17;;
12171;SDS011;6149;52.418;13.668;2023-06-10T09:55:56;8.07;;;7.27;;
12171;SDS011;6149;52.418;13.668;2023-06-10T09:58:33;8.90;;;7.93;;
12171;SDS011;6149;52.418;13.668;2023-06-10T10:01:04;9.90;;;8.63;;
12171;SDS011;6149;52.418;13.668;2023-06-10T10:03:33;8.60;;;7.80;;
12171;SDS011;6149;52.418;13.668;2023-06-10T10:06:00;10.50;;;7.63;;
12171;SDS011;6149;52.418;13.668;2023-06-10T10:08:27;8.40;;;7.53;;
12171;SDS011;6149;52.418;13.668;2023-06-10T10:10:55;9.37;;;7.80;;
12171;SDS011;6149;52.418;13.668;2023-06-10T10:13:24;8.77;;;7.97;;
12171;SDS011;6149;52.418;13.668;2023-06-10T10:15:52;8.30;;;7.50;;
12171;SDS011;6149;52.418;13.668;2023-06-10T10:18:20;10.90;;;8.57;;
12171;SDS011;6149;52.418;13.668;2023-06-10T10:20:54;11.17;;;7.53;;
12171;SDS011;6149;52.418;13.668;2023-06-10T10:23:24;8.47;;;7.67;;
12171;SDS011;6149;52.418;13.668;2023-06-10T10:26:00;9.67;;;7.67;;
12171;SDS011;6149;52.418;13.668;2023-06-10T10:28:34;12.70;;;7.93;;
12171;SDS011;6149;52.418;13.668;2023-06-10T10:31:08;8.37;;;7.57;;
12171;SDS011;6149;52.418;13.668;2023-06-10T10:33:39;8.93;;;7.70;;
12171;SDS011;6149;52.418;13.668;2023-06-10T10:36:16;8.40;;;7.60;;
12171;SDS011;6149;52.418;13.668;2023-06-10T10:38:50;8.57;;;7.73;;
12171;SDS011;6149;52.418;13.668;2023-06-10T10:41:19;10.40;;;7.40;;
12171;SDS011;6149;52.418;13.668;2023-06-10T10:43:51;8.47;;;7.17;;
12171;SDS011;6149;52.418;13.668;2023-06-10T10:46:20;9.00;;;7.27;;
12171;SDS011;6149;52.418;13.668;2023-06-10T10:48:51;9.00;;;6.93;;
12171;SDS011;6149;52.418;13.668;2023-06-10T10:51:22;7.33;;;6.63;;
12171;SDS011;6149;52.418;13.668;2023-06-10T10:59:45;9.33;;;6.17;;
12171;SDS011;6149;52.418;13.668;2023-06-10T11:02:17;8.17;;;6.40;;
12171;SDS011;6149;52.418;13.668;2023-06-10T11:04:58;7.53;;;6.40;;
12171;SDS011;6149;52.418;13.668;2023-06-10T11:07:28;7.13;;;6.43;;
12171;SDS011;6149;52.418;13.668;2023-06-10T11:10:01;6.63;;;6.03;;
12171;SDS011;6149;52.418;13.668;2023-06-10T11:12:40;7.07;;;6.37;;
12171;SDS011;6149;52.418;13.668;2023-06-10T11:15:08;7.23;;;6.30;;
12171;SDS011;6149;52.418;13.668;2023-06-10T11:17:35;7.07;;;6.37;;
12171;SDS011;6149;52.418;13.668;2023-06-10T11:20:03;7.20;;;6.50;;
12171;SDS011;6149;52.418;13.668;2023-06-10T11:22:30;6.83;;;6.23;;
12171;SDS011;6149;52.418;13.668;2023-06-10T11:24:57;6.60;;;6.00;;
12171;SDS011;6149;52.418;13.668;2023-06-10T11:27:28;8.73;;;6.73;;
12171;SDS011;6149;52.418;13.668;2023-06-10T11:30:20;6.77;;;5.53;;
12171;SDS011;6149;52.418;13.668;2023-06-10T11:32:53;6.23;;;5.27;;
12171;SDS011;6149;52.418;13.668;2023-06-10T11:35:23;7.20;;;5.60;;
12171;SDS011;6149;52.418;13.668;2023-06-10T11:37:51;7.43;;;5.93;;
12171;SDS011;6149;52.418;13.668;2023-06-10T11:40:19;7.90;;;6.80;;
12171;SDS011;6149;52.418;13.668;2023-06-10T11:42:50;6.97;;;6.37;;
12171;SDS011;6149;52.418;13.668;2023-06-10T11:45:16;8.43;;;6.57;;
12171;SDS011;6149;52.418;13.668;2023-06-10T11:47:56;9.33;;;7.50;;
12171;SDS011;6149;52.418;13.668;2023-06-10T11:50:29;8.43;;;7.53;;
12171;SDS011;6149;52.418;13.668;2023-06-10T11:53:01;8.13;;;7.43;;
12171;SDS011;6149;52.418;13.668;2023-06-10T11:55:40;8.33;;;7.47;;
12171;SDS011;6149;52.418;13.668;2023-06-10T11:58:13;9.63;;;7.37;;
12171;SDS011;6149;52.418;13.668;2023-06-10T12:00:44;9.13;;;8.23;;
12171;SDS011;6149;52.418;13.668;2023-06-10T12:03:12;8.90;;;8.00;;
12171;SDS011;6149;52.418;13.668;2023-06-10T12:05:38;13.33;;;8.03;;
12171;SDS011;6149;52.418;13.668;2023-06-10T12:08:09;8.77;;;7.87;;
12171;SDS011;6149;52.418;13.668;2023-06-10T12:10:41;7.87;;;7.17;;
12171;SDS011;6149;52.418;13.668;2023-06-10T12:13:09;9.10;;;8.20;;
12171;SDS011;6149;52.418;13.668;2023-06-10T12:15:37;7.97;;;7.23;;
12171;SDS011;6149;52.418;13.668;2023-06-10T12:18:06;8.73;;;7.93;;
12171;SDS011;6149;52.418;13.668;2023-06-10T12:20:32;9.77;;;7.43;;
12171;SDS011;6149;52.418;13.668;2023-06-10T12:22:59;9.50;;;8.00;;
12171;SDS011;6149;52.418;13.668;2023-06-10T12:25:27;8.43;;;7.57;;
12171;SDS011;6149;52.418;13.668;2023-06-10T12:27:55;8.53;;;7.73;;
12171;SDS011;6149;52.418;13.668;2023-06-10T12:30:25;8.60;;;7.87;;
12171;SDS011;6149;52.418;13.668;2023-06-10T12:32:55;9.00;;;7.80;;
12171;SDS011;6149;52.418;13.668;2023-06-10T12:35:24;9.73;;;7.57;;
12171;SDS011;6149;52.418;13.668;2023-06-10T12:37:57;11.53;;;7.97;;
12171;SDS011;6149;52.418;13.668;2023-06-10T12:40:26;7.80;;;7.10;;
12171;SDS011;6149;52.418;13.668;2023-06-10T12:42:54;8.63;;;7.10;;
12171;SDS011;6149;52.418;13.668;2023-06-10T12:45:27;8.60;;;7.77;;
12171;SDS011;6149;52.418;13.668;2023-06-10T12:48:05;7.47;;;6.83;;
12171;SDS011;6149;52.418;13.668;2023-06-10T12:50:34;7.13;;;6.50;;
12171;SDS011;6149;52.418;13.668;2023-06-10T12:53:02;6.60;;;5.90;;
12171;SDS011;6149;52.418;13.668;2023-06-10T12:55:28;8.07;;;5.93;;
12171;SDS011;6149;52.418;13.668;2023-06-10T12:57:55;7.03;;;6.20;;
12171;SDS011;6149;52.418;13.668;2023-06-10T13:00:23;7.80;;;5.70;;
12171;SDS011;6149;52.418;13.668;2023-06-10T13:02:52;6.40;;;5.80;;
12171;SDS011;6149;52.418;13.668;2023-06-10T13:05:24;7.83;;;5.97;;
12171;SDS011;6149;52.418;13.668;2023-06-10T13:07:51;7.50;;;6.10;;
12171;SDS011;6149;52.418;13.668;2023-06-10T13:10:21;6.00;;;5.50;;
12171;SDS011;6149;52.418;13.668;2023-06-10T13:12:48;6.80;;;6.07;;
12171;SDS011;6149;52.418;13.668;2023-06-10T13:15:19;7.37;;;6.30;;
12171;SDS011;6149;52.418;13.668;2023-06-10T13:17:52;6.47;;;5.80;;
12171;SDS011;6149;52.418;13.668;2023-06-10T13:20:20;7.43;;;5.77;;
12171;SDS011;6149;52.418;13.668;2023-06-10T13:22:48;7.97;;;5.43;;
12171;SDS011;6149;52.418;13.668;2023-06-10T13:25:16;7.90;;;6.23;;
12171;SDS011;6149;52.418;13.668;2023-06-10T13:27:42;6.90;;;6.17;;
12171;SDS011;6149;52.418;13.668;2023-06-10T13:30:09;7.23;;;5.90;;
12171;SDS011;6149;52.418;13.668;2023-06-10T13:32:37;6.60;;;5.90;;
12171;SDS011;6149;52.418;13.668;2023-06-10T13:35:06;6.20;;;5.60;;
12171;SDS011;6149;52.418;13.668;2023-06-10T13:37:33;6.13;;;5.53;;
12171;SDS011;6149;52.418;13.668;2023-06-10T13:40:01;7.70;;;5.67;;
12171;SDS011;6149;52.418;13.668;2023-06-10T13:42:28;7.77;;;5.87;;
12171;SDS011;6149;52.418;13.668;2023-06-10T13:44:55;8.43;;;6.20;;
12171;SDS011;6149;52.418;13.668;2023-06-10T13:47:23;6.40;;;5.70;;
12171;SDS011;6149;52.418;13.668;2023-06-10T13:49:51;6.53;;;6.03;;
12171;SDS011;6149;52.418;13.668;2023-06-10T13:52:20;7.83;;;6.27;;
12171;SDS011;6149;52.418;13.668;2023-06-10T13:54:49;6.80;;;6.20;;
12171;SDS011;6149;52.418;13.668;2023-06-10T13:57:20;7.90;;;6.90;;
12171;SDS011;6149;52.418;13.668;2023-06-10T13:59:47;6.83;;;6.17;;
12171;SDS011;6149;52.418;13.668;2023-06-10T14:02:16;7.10;;;6.40;;
12171;SDS011;6149;52.418;13.668;2023-06-10T14:04:42;5.70;;;5.10;;
12171;SDS011;6149;52.418;13.668;2023-06-10T14:07:10;7.47;;;5.70;;
12171;SDS011;6149;52.418;13.668;2023-06-10T14:09:37;6.50;;;5.90;;
12171;SDS011;6149;52.418;13.668;2023-06-10T14:12:04;8.17;;;6.20;;
12171;SDS011;6149;52.418;13.668;2023-06-10T14:14:35;8.07;;;6.77;;
12171;SDS011;6149;52.418;13.668;2023-06-10T14:17:02;6.63;;;6.00;;
12171;SDS011;6149;52.418;13.668;2023-06-10T14:19:29;7.37;;;6.67;;
12171;SDS011;6149;52.418;13.668;2023-06-10T14:21:56;6.57;;;6.03;;
12171;SDS011;6149;52.418;13.668;2023-06-10T14:24:25;6.60;;;6.00;;
12171;SDS011;6149;52.418;13.668;2023-06-10T14:26:52;8.23;;;6.53;;
12171;SDS011;6149;52.418;13.668;2023-06-10T14:29:23;9.90;;;5.97;;
12171;SDS011;6149;52.418;13.668;2023-06-10T14:31:53;7.00;;;6.40;;
12171;SDS011;6149;52.418;13.668;2023-06-10T14:34:21;7.23;;;6.53;;
12171;SDS011;6149;52.418;13.668;2023-06-10T14:36:50;10.27;;;6.50;;
12171;SDS011;6149;52.418;13.668;2023-06-10T14:39:17;8.77;;;6.00;;
12171;SDS011;6149;52.418;13.668;2023-06-10T14:41:45;7.53;;;6.50;;
12171;SDS011;6149;52.418;13.668;2023-06-10T14:44:13;6.53;;;5.93;;
12171;SDS011;6149;52.418;13.668;2023-06-10T14:46:39;7.13;;;6.40;;
12171;SDS011;6149;52.418;13.668;2023-06-10T14:49:07;8.23;;;6.77;;
12171;SDS011;6149;52.418;13.668;2023-06-10T14:51:34;6.83;;;5.83;;
12171;SDS011;6149;52.418;13.668;2023-06-10T14:54:01;8.80;;;6.60;;
12171;SDS011;6149;52.418;13.668;2023-06-10T14:56:27;6.97;;;6.20;;